createdAt,value
2019-05-02T00:01:34.417Z,15.40
2019-05-02T00:03:41.178Z,15.40
2019-05-02T00:05:42.814Z,15.40
2019-05-02T00:07:46.056Z,15.40
2019-05-02T00:09:50.443Z,15.30
2019-05-02T00:11:58.835Z,15.40
2019-05-02T00:13:59.345Z,15.30
2019-05-02T00:16:02.682Z,15.30
2019-05-02T00:18:05.966Z,15.30
2019-05-02T00:20:09.188Z,15.30
2019-05-02T00:22:17.008Z,15.30
2019-05-02T00:24:17.509Z,15.20
2019-05-02T00:26:24.627Z,15.20
2019-05-02T00:28:25.758Z,15.20
2019-05-02T00:30:30.065Z,15.20
2019-05-02T00:32:33.973Z,15.20
2019-05-02T00:34:37.218Z,15.20
2019-05-02T00:36:40.496Z,15.20
2019-05-02T00:38:43.752Z,15.20
2019-05-02T00:40:47.054Z,15.20
2019-05-02T00:42:53.345Z,15.10
2019-05-02T00:44:55.339Z,15.20
2019-05-02T00:47:00.225Z,15.20
2019-05-02T00:49:03.486Z,15.10
2019-05-02T00:51:06.718Z,15.10
2019-05-02T00:53:12.198Z,15.10
2019-05-02T00:55:14.943Z,15.10
2019-05-02T00:57:20.043Z,15.10
2019-05-02T00:59:23.161Z,15.00
2019-05-02T01:01:29.611Z,15.00
2019-05-02T01:03:34.911Z,15.00
2019-05-02T01:05:40.042Z,15.00
2019-05-02T01:07:43.138Z,15.00
2019-05-02T01:09:46.835Z,14.90
2019-05-02T01:11:51.297Z,14.90
2019-05-02T01:13:55.826Z,14.90
2019-05-02T01:15:59.526Z,14.90
2019-05-02T01:18:06.113Z,14.90
2019-05-02T01:20:07.761Z,14.90
2019-05-02T01:22:15.760Z,14.90
2019-05-02T01:24:16.007Z,14.90
2019-05-02T01:26:24.221Z,14.80
2019-05-02T01:28:43.077Z,14.80
2019-05-02T01:31:04.514Z,14.80
2019-05-02T01:33:12.247Z,14.80
2019-05-02T01:35:26.974Z,14.80
2019-05-02T01:37:36.040Z,14.80
2019-05-02T01:39:42.848Z,14.70
2019-05-02T01:41:44.301Z,14.70
2019-05-02T01:43:47.537Z,14.70
2019-05-02T01:45:51.148Z,14.70
2019-05-02T01:47:54.451Z,14.70
2019-05-02T01:49:59.180Z,14.70
2019-05-02T01:52:02.639Z,14.70
2019-05-02T01:54:10.101Z,14.70
2019-05-02T01:56:10.910Z,14.70
2019-05-02T01:58:14.878Z,14.60
2019-05-02T02:00:19.122Z,14.60
2019-05-02T02:02:22.363Z,14.60
2019-05-02T02:04:25.620Z,14.60
2019-05-02T02:06:28.868Z,14.60
2019-05-02T02:08:33.805Z,14.60
2019-05-02T02:10:37.244Z,14.60
2019-05-02T02:12:43.003Z,14.50
2019-05-02T02:14:48.131Z,14.50
2019-05-02T02:16:50.446Z,14.50
2019-05-02T02:18:58.996Z,14.50
2019-05-02T02:21:10.583Z,14.50
2019-05-02T02:23:24.286Z,14.50
2019-05-02T02:25:32.228Z,14.50
2019-05-02T02:27:36.732Z,14.40
2019-05-02T02:29:43.973Z,14.40
2019-05-02T02:31:46.786Z,14.40
2019-05-02T02:33:50.142Z,14.30
2019-05-02T02:35:54.121Z,14.40
2019-05-02T02:37:57.387Z,14.30
2019-05-02T02:40:00.628Z,14.30
2019-05-02T02:42:03.889Z,14.30
2019-05-02T02:44:08.782Z,14.30
2019-05-02T02:46:13.714Z,14.30
2019-05-02T02:48:17.016Z,14.30
2019-05-02T02:50:20.272Z,14.30
2019-05-02T02:52:23.547Z,14.20
2019-05-02T02:54:26.779Z,14.20
2019-05-02T02:56:34.421Z,14.20
2019-05-02T02:58:44.089Z,14.20
2019-05-02T03:00:41.537Z,14.20
2019-05-02T03:02:48.421Z,14.20
2019-05-02T03:04:49.987Z,14.20
2019-05-02T03:06:53.255Z,14.20
2019-05-02T03:08:56.490Z,14.10
2019-05-02T03:10:59.897Z,14.10
2019-05-02T03:13:15.149Z,14.10
2019-05-02T03:15:20.881Z,14.10
2019-05-02T03:17:26.555Z,14.00
2019-05-02T03:19:27.277Z,14.00
2019-05-02T03:21:30.550Z,14.00
2019-05-02T03:23:33.811Z,13.90
2019-05-02T03:25:49.824Z,13.90
2019-05-02T03:27:42.046Z,13.90
2019-05-02T03:29:45.290Z,13.90
2019-05-02T03:31:48.535Z,13.90
2019-05-02T03:33:56.660Z,13.80
2019-05-02T03:35:56.959Z,13.80
2019-05-02T03:38:00.551Z,13.80
2019-05-02T03:40:03.859Z,13.80
2019-05-02T03:42:07.124Z,13.80
2019-05-02T03:44:12.339Z,13.80
2019-05-02T03:46:20.818Z,13.80
2019-05-02T03:48:25.923Z,13.70
2019-05-02T03:50:32.769Z,13.70
2019-05-02T03:52:36.414Z,13.70
2019-05-02T03:54:42.401Z,13.70
2019-05-02T03:56:48.746Z,13.70
2019-05-02T03:58:48.350Z,13.70
2019-05-02T04:01:00.780Z,13.70
2019-05-02T04:03:00.501Z,13.70
2019-05-02T04:05:02.876Z,13.70
2019-05-02T04:07:05.629Z,13.70
2019-05-02T04:09:10.525Z,13.70
2019-05-02T04:11:17.022Z,13.70
2019-05-02T04:13:20.259Z,13.70
2019-05-02T04:15:28.686Z,13.70
2019-05-02T04:17:34.881Z,13.70
2019-05-02T04:19:34.907Z,13.70
2019-05-02T04:21:38.534Z,13.70
2019-05-02T04:23:42.012Z,13.70
2019-05-02T04:25:45.301Z,13.70
2019-05-02T04:27:48.575Z,13.70
2019-05-02T04:29:51.861Z,13.70
2019-05-02T04:31:55.100Z,13.70
2019-05-02T04:33:58.342Z,13.70
2019-05-02T04:36:01.792Z,13.70
2019-05-02T04:38:15.758Z,13.70
2019-05-02T04:40:12.531Z,13.70
2019-05-02T04:42:19.444Z,13.70
2019-05-02T04:44:20.874Z,13.70
2019-05-02T04:46:30.139Z,13.70
2019-05-02T04:48:34.631Z,13.70
2019-05-02T04:50:34.107Z,13.70
2019-05-02T04:52:46.868Z,13.70
2019-05-02T04:54:42.485Z,13.70
2019-05-02T04:56:49.733Z,13.70
2019-05-02T04:58:50.803Z,13.70
2019-05-02T05:00:58.309Z,13.70
2019-05-02T05:02:59.040Z,13.60
2019-05-02T05:05:02.296Z,13.60
2019-05-02T05:07:05.535Z,13.70
2019-05-02T05:09:10.436Z,13.70
2019-05-02T05:11:17.977Z,13.70
2019-05-02T05:13:22.741Z,13.70
2019-05-02T05:15:37.149Z,13.70
2019-05-02T05:17:32.774Z,13.70
2019-05-02T05:19:33.714Z,13.70
2019-05-02T05:21:37.430Z,13.70
2019-05-02T05:23:56.251Z,13.70
2019-05-02T05:26:03.465Z,13.70
2019-05-02T05:28:05.885Z,13.70
2019-05-02T05:30:15.217Z,13.70
2019-05-02T05:32:13.431Z,13.70
2019-05-02T05:34:17.333Z,13.70
2019-05-02T05:36:29.262Z,13.70
2019-05-02T05:38:28.595Z,13.70
2019-05-02T05:40:32.055Z,13.80
2019-05-02T05:42:37.805Z,13.80
2019-05-02T05:44:40.594Z,13.80
2019-05-02T05:46:46.844Z,13.80
2019-05-02T05:48:48.886Z,13.90
2019-05-02T05:50:52.128Z,13.90
2019-05-02T05:52:59.314Z,13.90
2019-05-02T05:55:00.349Z,14.00
2019-05-02T05:57:03.988Z,14.00
2019-05-02T05:59:07.849Z,14.00
2019-05-02T06:01:11.651Z,14.00
2019-05-02T06:03:14.913Z,14.10
2019-05-02T06:05:18.166Z,14.10
2019-05-02T06:07:21.433Z,14.20
2019-05-02T06:09:26.234Z,14.20
2019-05-02T06:11:29.665Z,14.30
2019-05-02T06:13:32.952Z,14.30
2019-05-02T06:15:38.961Z,14.40
2019-05-02T06:17:41.198Z,14.40
2019-05-02T06:19:48.400Z,14.50
2019-05-02T06:21:49.465Z,14.60
2019-05-02T06:23:52.729Z,14.60
2019-05-02T06:25:55.962Z,14.70
2019-05-02T06:28:00.269Z,14.80
2019-05-02T06:30:07.399Z,14.80
2019-05-02T06:32:14.156Z,14.90
2019-05-02T06:34:15.678Z,14.90
2019-05-02T06:36:18.938Z,15.00
2019-05-02T06:38:22.936Z,15.00
2019-05-02T06:40:26.341Z,15.10
2019-05-02T06:42:32.838Z,15.10
2019-05-02T06:44:34.573Z,15.10
2019-05-02T06:46:37.818Z,15.10
2019-05-02T06:48:41.113Z,15.10
2019-05-02T06:50:44.354Z,15.20
2019-05-02T06:52:47.629Z,15.20
2019-05-02T06:54:54.047Z,15.30
2019-05-02T06:56:55.858Z,15.30
2019-05-02T06:58:59.195Z,15.40
2019-05-02T07:01:02.706Z,15.40
2019-05-02T07:03:10.225Z,15.50
2019-05-02T07:05:10.961Z,15.50
2019-05-02T07:07:14.342Z,15.50
2019-05-02T07:09:18.128Z,15.50
2019-05-02T07:11:21.519Z,15.50
2019-05-02T07:13:24.785Z,15.50
2019-05-02T07:15:41.756Z,15.60
2019-05-02T07:17:46.690Z,15.60
2019-05-02T07:19:51.594Z,15.60
2019-05-02T07:21:58.531Z,15.60
2019-05-02T07:23:59.895Z,15.70
2019-05-02T07:26:03.361Z,15.70
2019-05-02T07:28:09.375Z,15.70
2019-05-02T07:30:11.658Z,15.70
2019-05-02T07:32:19.458Z,15.70
2019-05-02T07:34:19.920Z,15.80
2019-05-02T07:36:23.178Z,15.80
2019-05-02T07:38:27.589Z,15.90
2019-05-02T07:40:31.070Z,15.90
2019-05-02T07:42:36.922Z,16.00
2019-05-02T07:44:39.370Z,16.00
2019-05-02T07:46:51.753Z,16.00
2019-05-02T07:48:48.880Z,16.10
2019-05-02T07:50:53.179Z,16.10
2019-05-02T07:52:56.854Z,16.20
2019-05-02T07:55:01.154Z,16.30
2019-05-02T07:57:05.169Z,16.30
2019-05-02T07:59:08.456Z,16.40
2019-05-02T08:01:13.505Z,16.40
2019-05-02T08:03:16.728Z,16.50
2019-05-02T08:05:21.850Z,16.50
2019-05-02T08:07:29.991Z,16.50
2019-05-02T08:09:29.981Z,16.60
2019-05-02T08:11:37.179Z,16.60
2019-05-02T08:13:38.236Z,16.70
2019-05-02T08:15:45.595Z,16.70
2019-05-02T08:17:53.180Z,16.80
2019-05-02T08:19:51.450Z,16.90
2019-05-02T08:21:54.732Z,16.90
2019-05-02T08:24:02.150Z,17.00
2019-05-02T08:26:03.004Z,17.00
2019-05-02T08:28:17.902Z,17.00
2019-05-02T08:30:22.969Z,17.10
2019-05-02T08:32:26.302Z,17.10
2019-05-02T08:34:31.294Z,17.10
2019-05-02T08:36:34.617Z,17.20
2019-05-02T08:38:37.964Z,17.20
2019-05-02T08:40:42.150Z,17.10
2019-05-02T08:42:46.276Z,17.20
2019-05-02T08:44:51.146Z,17.20
2019-05-02T08:46:54.505Z,17.20
2019-05-02T08:48:57.765Z,17.20
2019-05-02T08:51:01.095Z,17.20
2019-05-02T08:53:04.574Z,17.30
2019-05-02T08:55:09.811Z,17.20
2019-05-02T08:57:12.833Z,17.30
2019-05-02T08:59:19.665Z,17.30
2019-05-02T09:01:21.067Z,17.30
2019-05-02T09:03:24.333Z,17.30
2019-05-02T09:05:27.563Z,17.40
2019-05-02T09:07:31.551Z,17.40
2019-05-02T09:09:35.796Z,17.40
2019-05-02T09:11:39.142Z,17.50
2019-05-02T09:13:42.453Z,17.50
2019-05-02T09:15:51.106Z,17.60
2019-05-02T09:17:56.316Z,17.60
2019-05-02T09:20:02.694Z,17.70
2019-05-02T09:22:02.554Z,17.70
2019-05-02T09:24:08.395Z,17.80
2019-05-02T09:26:11.938Z,17.90
2019-05-02T09:28:17.184Z,17.90
2019-05-02T09:30:22.792Z,18.00
2019-05-02T09:32:26.639Z,18.10
2019-05-02T09:34:31.899Z,18.20
2019-05-02T09:36:37.996Z,18.20
2019-05-02T09:38:40.024Z,18.30
2019-05-02T09:40:47.226Z,18.40
2019-05-02T09:42:53.417Z,18.50
2019-05-02T09:44:57.020Z,18.60
2019-05-02T09:46:58.283Z,18.70
2019-05-02T09:49:06.523Z,18.70
2019-05-02T09:51:15.624Z,18.80
2019-05-02T09:53:20.339Z,18.90
2019-05-02T09:55:18.403Z,19.00
2019-05-02T09:57:22.570Z,19.00
2019-05-02T09:59:30.243Z,19.10
2019-05-02T10:01:34.150Z,19.20
2019-05-02T10:03:37.425Z,19.30
2019-05-02T10:05:42.883Z,19.30
2019-05-02T10:07:48.487Z,19.40
2019-05-02T10:09:51.892Z,19.50
2019-05-02T10:11:58.251Z,19.50
2019-05-02T10:14:02.492Z,19.60
2019-05-02T10:16:05.833Z,19.60
2019-05-02T10:18:12.078Z,19.70
2019-05-02T10:20:14.166Z,19.70
2019-05-02T10:22:17.427Z,19.80
2019-05-02T10:24:22.186Z,19.90
2019-05-02T10:26:25.617Z,19.90
2019-05-02T10:28:28.920Z,20.00
2019-05-02T10:30:35.839Z,20.10
2019-05-02T10:32:38.649Z,20.20
2019-05-02T10:34:42.282Z,20.20
2019-05-02T10:36:45.758Z,20.30
2019-05-02T10:38:53.335Z,20.40
2019-05-02T10:40:59.419Z,20.50
2019-05-02T10:42:59.020Z,20.50
2019-05-02T10:45:02.756Z,20.60
2019-05-02T10:47:06.182Z,20.70
2019-05-02T10:49:20.056Z,20.80
2019-05-02T10:51:26.233Z,20.90
2019-05-02T10:53:29.738Z,21.00
2019-05-02T10:55:33.336Z,21.10
2019-05-02T10:57:36.697Z,21.10
2019-05-02T10:59:41.962Z,21.20
2019-05-02T11:01:46.618Z,21.30
2019-05-02T11:03:54.358Z,21.30
2019-05-02T11:06:05.509Z,21.40
2019-05-02T11:08:06.242Z,21.50
2019-05-02T11:10:09.552Z,21.50
2019-05-02T11:12:16.478Z,21.60
2019-05-02T11:14:23.961Z,21.60
2019-05-02T11:16:43.901Z,21.70
2019-05-02T11:18:54.543Z,21.70
2019-05-02T11:20:59.124Z,21.80
2019-05-02T11:23:02.819Z,21.90
2019-05-02T11:25:06.963Z,21.90
2019-05-02T11:27:10.251Z,22.00
2019-05-02T11:29:13.513Z,22.00
2019-05-02T11:31:17.696Z,22.10
2019-05-02T11:33:22.875Z,22.20
2019-05-02T11:35:25.980Z,22.30
2019-05-02T11:37:29.384Z,22.40
2019-05-02T11:39:42.794Z,22.40
2019-05-02T11:41:37.656Z,22.40
2019-05-02T11:43:42.436Z,22.50
2019-05-02T11:45:45.926Z,22.60
2019-05-02T11:47:49.194Z,22.60
2019-05-02T11:49:55.942Z,22.70
2019-05-02T11:51:58.203Z,22.80
2019-05-02T11:54:05.193Z,22.90
2019-05-02T11:56:07.834Z,22.90
2019-05-02T11:58:12.590Z,23.10
2019-05-02T12:00:16.058Z,23.10
2019-05-02T12:02:26.797Z,23.20
2019-05-02T12:04:32.456Z,23.30
2019-05-02T12:06:35.068Z,23.40
2019-05-02T12:08:39.474Z,23.40
2019-05-02T12:10:43.314Z,23.40
2019-05-02T12:12:46.562Z,23.40
2019-05-02T12:14:49.817Z,23.40
2019-05-02T12:16:53.085Z,23.40
2019-05-02T12:19:08.512Z,23.40
2019-05-02T12:21:02.587Z,23.40
2019-05-02T12:23:09.019Z,23.50
2019-05-02T12:25:12.683Z,23.50
2019-05-02T12:27:16.263Z,23.50
2019-05-02T12:29:21.724Z,23.60
2019-05-02T12:31:29.140Z,23.70
2019-05-02T12:33:34.071Z,23.70
2019-05-02T12:35:37.320Z,23.70
2019-05-02T12:37:42.397Z,23.80
2019-05-02T12:39:45.586Z,23.70
2019-05-02T12:41:49.342Z,23.80
2019-05-02T12:43:53.017Z,23.70
2019-05-02T12:45:56.294Z,23.80
2019-05-02T12:47:59.555Z,23.80
2019-05-02T12:50:03.310Z,23.80
2019-05-02T12:52:06.632Z,23.90
2019-05-02T12:54:09.971Z,23.90
2019-05-02T12:56:13.257Z,23.90
2019-05-02T12:58:16.524Z,23.90
2019-05-02T13:00:20.052Z,24.00
2019-05-02T13:02:28.164Z,24.00
2019-05-02T13:04:32.250Z,24.10
2019-05-02T13:06:37.270Z,24.10
2019-05-02T13:08:49.388Z,24.10
2019-05-02T13:11:02.321Z,24.20
2019-05-02T13:13:02.790Z,24.20
2019-05-02T13:15:06.810Z,24.30
2019-05-02T13:17:11.877Z,24.30
2019-05-02T13:19:15.362Z,24.30
2019-05-02T13:21:38.994Z,24.30
2019-05-02T13:25:51.792Z,24.40
2019-05-02T13:27:55.384Z,24.50
2019-05-02T13:29:58.746Z,24.60
2019-05-02T13:32:16.921Z,24.60
2019-05-02T13:34:32.020Z,24.70
2019-05-02T13:36:42.121Z,24.70
2019-05-02T13:38:45.034Z,24.70
2019-05-02T13:40:48.302Z,24.80
2019-05-02T13:42:52.305Z,24.80
2019-05-02T13:44:57.371Z,24.80
2019-05-02T13:47:02.582Z,24.90
2019-05-02T13:49:05.616Z,24.90
2019-05-02T13:51:08.879Z,25.00
2019-05-02T13:53:12.292Z,25.00
2019-05-02T13:55:17.247Z,25.00
2019-05-02T13:57:21.796Z,25.10
2019-05-02T13:59:25.306Z,25.10
2019-05-02T14:01:28.583Z,25.20
2019-05-02T14:03:32.574Z,25.20
2019-05-02T14:05:37.516Z,25.30
2019-05-02T14:07:48.327Z,25.30
2019-05-02T14:09:57.876Z,25.40
2019-05-02T14:11:57.391Z,25.40
2019-05-02T14:14:01.891Z,25.40
2019-05-02T14:16:05.392Z,25.50
2019-05-02T14:18:08.667Z,25.40
2019-05-02T14:20:13.878Z,25.40
2019-05-02T14:22:16.941Z,25.40
2019-05-02T14:24:23.064Z,25.40
2019-05-02T14:26:30.219Z,25.40
2019-05-02T14:28:36.094Z,25.40
2019-05-02T14:30:40.799Z,25.40
2019-05-02T14:32:52.234Z,25.40
2019-05-02T14:34:59.697Z,25.40
2019-05-02T14:37:02.965Z,25.40
2019-05-02T14:39:07.769Z,25.50
2019-05-02T14:41:12.706Z,25.50
2019-05-02T14:43:17.704Z,25.50
2019-05-02T14:45:30.813Z,25.50
2019-05-02T14:47:26.050Z,25.50
2019-05-02T14:49:29.319Z,25.50
2019-05-02T14:51:34.835Z,25.50
2019-05-02T14:53:37.642Z,25.50
2019-05-02T14:55:42.561Z,25.50
2019-05-02T14:57:45.844Z,25.50
2019-05-02T14:59:50.408Z,25.50
2019-05-02T15:01:57.950Z,25.50
2019-05-02T15:04:06.479Z,25.50
2019-05-02T15:06:07.034Z,25.40
2019-05-02T15:08:11.854Z,25.30
2019-05-02T15:10:15.319Z,25.30
2019-05-02T15:12:19.172Z,25.20
2019-05-02T15:14:22.587Z,25.10
2019-05-02T15:16:39.374Z,25.10
2019-05-02T15:18:32.142Z,25.00
2019-05-02T15:20:39.225Z,25.00
2019-05-02T15:22:42.326Z,24.90
2019-05-02T15:24:45.533Z,24.90
2019-05-02T15:26:49.168Z,24.80
2019-05-02T15:28:52.455Z,24.70
2019-05-02T15:31:04.908Z,24.70
2019-05-02T15:33:09.450Z,24.60
2019-05-02T15:35:23.045Z,24.60
2019-05-02T15:37:25.990Z,24.50
2019-05-02T15:41:34.432Z,24.40
2019-05-02T15:43:39.273Z,24.30
2019-05-02T15:45:44.105Z,24.20
2019-05-02T15:47:48.283Z,24.20
2019-05-02T15:49:52.802Z,24.10
2019-05-02T15:51:56.293Z,24.10
2019-05-02T15:54:08.461Z,24.00
2019-05-02T15:56:18.732Z,24.00
2019-05-02T15:58:26.039Z,23.90
2019-05-02T16:00:25.781Z,23.80
2019-05-02T16:02:32.085Z,23.70
2019-05-02T16:04:37.149Z,23.70
2019-05-02T16:06:42.107Z,23.60
2019-05-02T16:08:48.156Z,23.50
2019-05-02T16:10:53.521Z,23.40
2019-05-02T16:12:56.457Z,23.30
2019-05-02T16:14:59.787Z,23.30
2019-05-02T16:17:03.785Z,23.20
2019-05-02T16:19:07.202Z,23.10
2019-05-02T16:21:18.449Z,23.10
2019-05-02T16:23:19.080Z,23.00
2019-05-02T16:25:24.504Z,23.00
2019-05-02T16:27:47.354Z,22.90
2019-05-02T16:29:50.715Z,22.90
2019-05-02T16:31:59.674Z,22.80
2019-05-02T16:34:01.992Z,22.80
2019-05-02T16:36:05.674Z,22.70
2019-05-02T16:38:08.942Z,22.60
2019-05-02T16:40:12.274Z,22.60
2019-05-02T16:42:15.516Z,22.60
2019-05-02T16:44:18.789Z,22.50
2019-05-02T16:46:22.147Z,22.40
2019-05-02T16:48:25.487Z,22.40
2019-05-02T16:50:35.130Z,22.30
2019-05-02T16:52:38.189Z,22.20
2019-05-02T16:54:41.767Z,22.00
2019-05-02T16:56:45.881Z,21.90
2019-05-02T16:58:48.775Z,21.70
2019-05-02T17:00:52.775Z,21.60
2019-05-02T17:02:56.133Z,21.40
2019-05-02T17:05:00.212Z,21.20
2019-05-02T17:07:06.061Z,21.00
2019-05-02T17:09:11.916Z,20.80
2019-05-02T17:11:27.855Z,20.60
2019-05-02T17:13:32.933Z,20.40
2019-05-02T17:15:37.034Z,20.20
2019-05-02T17:17:42.241Z,20.00
2019-05-02T17:19:46.332Z,19.80
2019-05-02T17:21:53.819Z,19.70
2019-05-02T17:23:56.277Z,19.60
2019-05-02T17:26:01.453Z,19.40
2019-05-02T17:28:09.765Z,19.30
2019-05-02T17:30:12.036Z,19.20
2019-05-02T17:32:15.542Z,19.10
2019-05-02T17:34:23.060Z,19.00
2019-05-02T17:36:28.385Z,19.00
2019-05-02T17:38:29.278Z,18.90
2019-05-02T17:40:32.791Z,18.80
2019-05-02T17:42:36.126Z,18.70
2019-05-02T17:44:41.460Z,18.70
2019-05-02T17:46:44.402Z,18.60
2019-05-02T17:48:52.607Z,18.60
2019-05-02T17:51:12.385Z,18.60
2019-05-02T17:53:15.868Z,18.50
2019-05-02T17:55:19.197Z,18.50
2019-05-02T17:57:22.473Z,18.50
2019-05-02T17:59:28.367Z,18.40
2019-05-02T18:01:34.996Z,18.40
2019-05-02T18:03:37.641Z,18.40
2019-05-02T18:05:41.867Z,18.40
2019-05-02T18:07:45.401Z,18.30
2019-05-02T18:09:48.649Z,18.30
2019-05-02T18:11:52.038Z,18.30
2019-05-02T18:13:55.364Z,18.20
2019-05-02T18:15:58.617Z,18.20
2019-05-02T18:18:06.370Z,18.20
2019-05-02T18:20:07.006Z,18.10
2019-05-02T18:22:21.050Z,18.10
2019-05-02T18:24:16.184Z,18.10
2019-05-02T18:26:19.418Z,18.10
2019-05-02T18:28:26.413Z,18.10
2019-05-02T18:30:27.715Z,18.00
2019-05-02T18:32:31.030Z,18.00
2019-05-02T18:34:34.393Z,18.00
2019-05-02T18:36:37.733Z,17.90
2019-05-02T18:38:41.744Z,17.90
2019-05-02T18:40:45.130Z,17.90
2019-05-02T18:42:48.393Z,17.90
2019-05-02T18:44:53.014Z,17.90
2019-05-02T18:46:57.875Z,17.90
2019-05-02T18:49:02.750Z,17.80
2019-05-02T18:51:06.120Z,17.80
2019-05-02T18:53:09.453Z,17.80
2019-05-02T18:55:17.239Z,17.70
2019-05-02T18:57:22.417Z,17.70
2019-05-02T18:59:27.039Z,17.60
2019-05-02T19:01:27.749Z,17.60
2019-05-02T19:03:31.099Z,17.50
2019-05-02T19:05:34.390Z,17.50
2019-05-02T19:07:37.728Z,17.50
2019-05-02T19:09:50.801Z,17.50
2019-05-02T19:11:46.054Z,17.40
2019-05-02T19:13:49.313Z,17.40
2019-05-02T19:15:53.410Z,17.40
2019-05-02T19:17:56.921Z,17.40
2019-05-02T19:20:00.219Z,17.40
2019-05-02T19:22:07.574Z,17.30
2019-05-02T19:24:08.565Z,17.30
2019-05-02T19:26:15.009Z,17.40
2019-05-02T19:28:18.564Z,17.30
2019-05-02T19:30:35.803Z,17.40
2019-05-02T19:32:39.131Z,17.30
2019-05-02T19:34:42.438Z,17.40
2019-05-02T19:36:45.763Z,17.30
2019-05-02T19:38:49.025Z,17.30
2019-05-02T19:40:52.285Z,17.30
2019-05-02T19:42:57.348Z,17.30
2019-05-02T19:45:03.747Z,17.30
2019-05-02T19:47:08.322Z,17.20
2019-05-02T19:49:12.392Z,17.20
2019-05-02T19:51:18.688Z,17.20
2019-05-02T19:53:22.650Z,17.20
2019-05-02T19:55:27.462Z,17.10
2019-05-02T19:57:32.293Z,17.10
2019-05-02T19:59:35.733Z,17.00
2019-05-02T20:01:39.050Z,17.00
2019-05-02T20:03:42.510Z,17.00
2019-05-02T20:05:48.314Z,17.00
2019-05-02T20:07:51.980Z,17.00
2019-05-02T20:09:55.359Z,16.90
2019-05-02T20:11:58.704Z,16.90
2019-05-02T20:14:09.187Z,16.90
2019-05-02T20:16:12.527Z,16.80
2019-05-02T20:18:15.880Z,16.80
2019-05-02T20:21:03.782Z,16.80
2019-05-02T20:23:15.441Z,16.80
2019-05-02T20:25:12.595Z,16.80
2019-05-02T20:27:16.000Z,16.70
2019-05-02T20:29:19.263Z,16.70
2019-05-02T20:31:22.526Z,16.70
2019-05-02T20:33:25.882Z,16.70
2019-05-02T20:35:29.166Z,16.70
2019-05-02T20:37:32.673Z,16.70
2019-05-02T20:39:35.957Z,16.70
2019-05-02T20:41:39.242Z,16.70
2019-05-02T20:43:44.762Z,16.60
2019-05-02T20:45:47.618Z,16.60
2019-05-02T20:47:52.369Z,16.60
2019-05-02T20:49:55.746Z,16.60
2019-05-02T20:51:59.010Z,16.60
2019-05-02T20:54:02.307Z,16.60
2019-05-02T20:56:05.565Z,16.60
2019-05-02T20:58:08.874Z,16.60
2019-05-02T21:00:26.477Z,16.60
2019-05-02T21:02:31.778Z,16.60
2019-05-02T21:04:34.751Z,16.60
2019-05-02T21:06:41.974Z,16.60
2019-05-02T21:09:02.790Z,16.60
2019-05-02T21:11:06.142Z,16.60
2019-05-02T21:13:09.415Z,16.60
2019-05-02T21:15:12.693Z,16.50
2019-05-02T21:17:16.298Z,16.50
2019-05-02T21:19:21.639Z,16.50
2019-05-02T21:21:24.592Z,16.50
2019-05-02T21:23:27.882Z,16.40
2019-05-02T21:25:32.571Z,16.50
2019-05-02T21:27:36.036Z,16.40
2019-05-02T21:29:39.316Z,16.50
2019-05-02T21:31:42.665Z,16.50
2019-05-02T21:33:45.927Z,16.40
2019-05-02T21:35:49.208Z,16.40
2019-05-02T21:37:52.515Z,16.40
2019-05-02T21:39:55.876Z,16.40
2019-05-02T21:41:59.209Z,16.40
2019-05-02T21:44:02.591Z,16.40
2019-05-02T21:46:06.030Z,16.40
2019-05-02T21:48:09.261Z,16.40
2019-05-02T21:50:24.617Z,16.40
2019-05-02T21:52:32.482Z,16.40
2019-05-02T21:54:37.482Z,16.40
2019-05-02T21:56:48.538Z,16.30
2019-05-02T21:59:08.283Z,16.30
2019-05-02T22:01:13.196Z,16.30
2019-05-02T22:03:16.431Z,16.30
2019-05-02T22:05:19.707Z,16.30
2019-05-02T22:07:22.982Z,16.30
2019-05-02T22:09:26.220Z,16.20
2019-05-02T22:11:29.488Z,16.20
2019-05-02T22:13:32.810Z,16.30
2019-05-02T22:15:36.074Z,16.20
2019-05-02T22:17:39.326Z,16.20
2019-05-02T22:19:42.578Z,16.20
2019-05-02T22:21:45.833Z,16.20
2019-05-02T22:23:49.085Z,16.20
2019-05-02T22:25:52.673Z,16.20
2019-05-02T22:27:56.072Z,16.10
2019-05-02T22:29:59.343Z,16.10
2019-05-02T22:32:03.118Z,16.10
2019-05-02T22:34:06.504Z,16.10
2019-05-02T22:36:09.759Z,16.10
2019-05-02T22:38:26.770Z,16.10
2019-05-02T22:40:30.023Z,16.10
2019-05-02T22:42:33.308Z,16.00
2019-05-02T22:44:36.544Z,16.00
2019-05-02T22:46:42.898Z,16.00
2019-05-02T22:48:46.058Z,16.00
2019-05-02T22:50:49.310Z,16.00
2019-05-02T22:52:52.569Z,16.00
2019-05-02T22:54:55.817Z,16.00
2019-05-02T22:56:59.090Z,16.00
2019-05-02T22:59:03.202Z,16.10
2019-05-02T23:01:07.015Z,16.10
2019-05-02T23:03:10.270Z,16.00
2019-05-02T23:05:13.526Z,16.00
2019-05-02T23:07:16.810Z,16.10
2019-05-02T23:09:21.890Z,16.10
2019-05-02T23:11:25.117Z,16.00
2019-05-02T23:13:28.364Z,16.00
2019-05-02T23:15:32.109Z,16.00
2019-05-02T23:17:35.569Z,16.00
2019-05-02T23:19:38.840Z,16.00
2019-05-02T23:21:42.488Z,16.00
2019-05-02T23:23:45.820Z,16.00
2019-05-02T23:25:51.941Z,15.90
2019-05-02T23:27:56.983Z,15.90
2019-05-02T23:30:00.252Z,15.90
2019-05-02T23:32:03.519Z,15.90
2019-05-02T23:34:06.799Z,15.90
2019-05-02T23:36:10.017Z,15.90
2019-05-02T23:38:13.275Z,15.80
2019-05-02T23:40:16.524Z,15.80
2019-05-02T23:42:21.708Z,15.80
2019-05-02T23:44:24.743Z,15.80
2019-05-02T23:46:28.000Z,15.80
2019-05-02T23:48:32.618Z,15.80
2019-05-02T23:50:35.910Z,15.70
2019-05-02T23:52:39.145Z,15.70
2019-05-02T23:54:49.937Z,15.70
2019-05-02T23:56:47.387Z,15.70
2019-05-02T23:58:51.943Z,15.70
